createdAt,value
2022-08-24T00:00:54.155Z,73.20
2022-08-24T00:01:54.266Z,73.20
2022-08-24T00:02:54.185Z,73.20
2022-08-24T00:03:55.438Z,73.40
2022-08-24T00:04:54.106Z,73.50
2022-08-24T00:05:54.105Z,73.60
2022-08-24T00:06:54.085Z,73.60
2022-08-24T00:07:54.079Z,73.60
2022-08-24T00:08:54.106Z,73.70
2022-08-24T00:09:54.057Z,73.80
2022-08-24T00:10:54.047Z,73.80
2022-08-24T00:11:54.040Z,73.80
2022-08-24T00:12:54.017Z,73.90
2022-08-24T00:13:54.028Z,73.80
2022-08-24T00:14:53.998Z,73.80
2022-08-24T00:15:53.990Z,73.80
2022-08-24T00:16:54.024Z,73.80
2022-08-24T00:17:53.969Z,73.90
2022-08-24T00:18:53.959Z,74.10
2022-08-24T00:19:53.965Z,74.30
2022-08-24T00:20:53.932Z,74.51
2022-08-24T00:21:53.920Z,74.94
2022-08-24T00:22:53.901Z,75.54
2022-08-24T00:23:53.914Z,75.74
2022-08-24T00:24:53.881Z,75.64
2022-08-24T00:25:53.893Z,75.81
2022-08-24T00:26:53.862Z,76.11
2022-08-24T00:27:53.870Z,76.54
2022-08-24T00:28:53.861Z,76.61
2022-08-24T00:29:53.833Z,77.01
2022-08-24T00:30:53.812Z,77.11
2022-08-24T00:31:53.865Z,77.31
2022-08-24T00:32:53.802Z,77.31
2022-08-24T00:33:53.794Z,77.61
2022-08-24T00:34:58.638Z,77.72
2022-08-24T00:35:54.765Z,77.72
2022-08-24T00:36:53.746Z,77.72
2022-08-24T00:37:53.749Z,77.81
2022-08-24T00:38:53.749Z,77.81
2022-08-24T00:39:53.786Z,77.72
2022-08-24T00:40:53.707Z,77.81
2022-08-24T00:41:53.705Z,77.81
2022-08-24T00:42:53.685Z,77.81
2022-08-24T00:43:53.690Z,77.72
2022-08-24T00:44:53.660Z,77.72
2022-08-24T00:45:53.687Z,77.61
2022-08-24T00:46:53.643Z,77.41
2022-08-24T00:47:53.630Z,77.51
2022-08-24T00:48:53.619Z,77.41
2022-08-24T00:49:53.609Z,77.51
2022-08-24T00:50:53.599Z,77.61
2022-08-24T00:51:53.590Z,77.72
2022-08-24T00:52:53.571Z,77.61
2022-08-24T00:53:53.581Z,77.41
2022-08-24T00:54:53.540Z,77.41
2022-08-24T00:55:53.571Z,77.31
2022-08-24T00:56:53.531Z,77.21
2022-08-24T00:57:53.521Z,77.21
2022-08-24T00:58:57.058Z,77.01
2022-08-24T00:59:53.503Z,76.91
2022-08-24T01:00:53.519Z,76.81
2022-08-24T01:01:53.532Z,76.71
2022-08-24T01:02:53.463Z,76.65
2022-08-24T01:03:56.793Z,76.54
2022-08-24T01:04:53.434Z,76.34
2022-08-24T01:05:53.434Z,76.15
2022-08-24T01:06:53.455Z,75.95
2022-08-24T01:07:53.415Z,75.64
2022-08-24T01:08:56.585Z,75.54
2022-08-24T01:09:53.384Z,75.48
2022-08-24T01:10:53.376Z,75.48
2022-08-24T01:11:53.366Z,75.48
2022-08-24T01:13:01.110Z,75.48
2022-08-24T01:13:54.347Z,75.58
2022-08-24T01:14:53.336Z,75.58
2022-08-24T01:15:53.383Z,75.62
2022-08-24T01:16:53.308Z,75.71
2022-08-24T01:17:53.300Z,75.71
2022-08-24T01:18:53.288Z,75.71
2022-08-24T01:19:53.280Z,75.82
2022-08-24T01:20:53.260Z,75.82
2022-08-24T01:21:53.251Z,75.82
2022-08-24T01:22:53.241Z,75.85
2022-08-24T01:23:53.241Z,75.95
2022-08-24T01:24:53.214Z,75.95
2022-08-24T01:25:53.210Z,76.05
2022-08-24T01:26:53.200Z,76.15
2022-08-24T01:27:53.181Z,76.15
2022-08-24T01:28:53.202Z,76.25
2022-08-24T01:29:53.172Z,76.25
2022-08-24T01:30:53.192Z,76.39
2022-08-24T01:31:53.206Z,76.39
2022-08-24T01:32:53.133Z,76.49
2022-08-24T01:33:53.125Z,76.49
2022-08-24T01:34:53.113Z,76.59
2022-08-24T01:35:53.094Z,76.69
2022-08-24T01:36:53.084Z,76.89
2022-08-24T01:37:53.076Z,77.00
2022-08-24T01:38:53.093Z,77.09
2022-08-24T01:39:53.093Z,77.23
2022-08-24T01:40:53.047Z,77.23
2022-08-24T01:41:53.025Z,77.33
2022-08-24T01:42:53.027Z,77.53
2022-08-24T01:43:53.006Z,77.63
2022-08-24T01:44:53.006Z,77.63
2022-08-24T01:45:52.985Z,77.73
2022-08-24T01:46:53.061Z,77.94
2022-08-24T01:47:52.968Z,77.94
2022-08-24T01:48:52.955Z,77.94
2022-08-24T01:49:52.951Z,78.23
2022-08-24T01:50:52.947Z,78.44
2022-08-24T01:51:52.922Z,78.44
2022-08-24T01:53:04.856Z,78.34
2022-08-24T01:53:53.980Z,78.44
2022-08-24T01:54:52.899Z,78.74
2022-08-24T01:55:52.914Z,78.94
2022-08-24T01:56:52.892Z,79.24
2022-08-24T01:57:52.852Z,79.44
2022-08-24T01:58:52.841Z,79.44
2022-08-24T01:59:52.841Z,79.85
2022-08-24T02:00:52.822Z,80.35
2022-08-24T02:01:52.855Z,80.55
2022-08-24T02:02:52.861Z,80.95
2022-08-24T02:03:52.786Z,81.26
2022-08-24T02:04:52.792Z,81.35
2022-08-24T02:05:52.765Z,81.26
2022-08-24T02:06:52.754Z,81.35
2022-08-24T02:07:52.746Z,81.56
2022-08-24T02:08:52.744Z,81.65
2022-08-24T02:09:52.714Z,81.56
2022-08-24T02:10:56.513Z,81.56
2022-08-24T02:11:52.723Z,81.85
2022-08-24T02:12:52.693Z,81.85
2022-08-24T02:13:52.686Z,81.96
2022-08-24T02:14:52.666Z,81.76
2022-08-24T02:15:52.690Z,81.96
2022-08-24T02:16:52.654Z,82.12
2022-08-24T02:17:52.652Z,82.36
2022-08-24T02:18:52.627Z,82.52
2022-08-24T02:19:52.627Z,82.72
2022-08-24T02:20:52.608Z,82.72
2022-08-24T02:21:52.600Z,82.72
2022-08-24T02:22:52.589Z,82.82
2022-08-24T02:23:52.589Z,82.72
2022-08-24T02:24:52.558Z,82.52
2022-08-24T02:25:52.551Z,82.52
2022-08-24T02:26:52.554Z,82.52
2022-08-24T02:27:52.529Z,82.46
2022-08-24T02:28:52.538Z,82.42
2022-08-24T02:29:52.510Z,82.52
2022-08-24T02:30:52.530Z,82.66
2022-08-24T02:31:52.488Z,82.66
2022-08-24T02:32:52.471Z,82.76
2022-08-24T02:33:52.472Z,82.86
2022-08-24T02:34:54.851Z,82.76
2022-08-24T02:35:52.452Z,82.76
2022-08-24T02:36:52.451Z,82.76
2022-08-24T02:37:52.434Z,82.76
2022-08-24T02:38:52.426Z,82.76
2022-08-24T02:39:52.435Z,82.76
2022-08-24T02:40:52.392Z,82.86
2022-08-24T02:41:52.382Z,82.86
2022-08-24T02:42:52.372Z,82.97
2022-08-24T02:43:52.375Z,82.86
2022-08-24T02:44:52.354Z,83.17
2022-08-24T02:45:52.327Z,83.17
2022-08-24T02:46:52.333Z,83.26
2022-08-24T02:47:52.314Z,83.37
2022-08-24T02:48:57.429Z,83.47
2022-08-24T02:49:53.278Z,83.47
2022-08-24T02:50:52.279Z,83.57
2022-08-24T02:51:52.275Z,83.57
2022-08-24T02:52:52.256Z,83.67
2022-08-24T02:53:52.247Z,83.76
2022-08-24T02:54:52.227Z,83.97
2022-08-24T02:55:52.217Z,84.17
2022-08-24T02:56:52.211Z,84.17
2022-08-24T02:57:52.197Z,84.17
2022-08-24T02:58:52.209Z,84.17
2022-08-24T02:59:52.169Z,84.17
2022-08-24T03:00:52.169Z,84.17
2022-08-24T03:01:52.192Z,84.17
2022-08-24T03:02:52.184Z,84.27
2022-08-24T03:03:52.137Z,84.27
2022-08-24T03:04:52.127Z,84.27
2022-08-24T03:05:52.111Z,84.47
2022-08-24T03:06:52.100Z,84.57
2022-08-24T03:07:52.389Z,84.77
2022-08-24T03:08:56.538Z,84.77
2022-08-24T03:09:52.089Z,84.67
2022-08-24T03:10:52.063Z,84.47
2022-08-24T03:11:52.042Z,84.41
2022-08-24T03:12:52.036Z,84.31
2022-08-24T03:13:52.032Z,84.21
2022-08-24T03:14:52.014Z,84.11
2022-08-24T03:15:52.065Z,84.01
2022-08-24T03:16:51.983Z,83.91
2022-08-24T03:17:51.982Z,83.91
2022-08-24T03:18:51.975Z,83.71
2022-08-24T03:19:51.956Z,83.51
2022-08-24T03:20:51.953Z,83.51
2022-08-24T03:21:51.925Z,83.40
2022-08-24T03:22:51.930Z,83.34
2022-08-24T03:23:51.926Z,83.34
2022-08-24T03:24:51.965Z,83.25
2022-08-24T03:25:51.895Z,83.25
2022-08-24T03:26:51.898Z,83.14
2022-08-24T03:27:51.868Z,82.94
2022-08-24T03:28:52.005Z,82.94
2022-08-24T03:29:51.850Z,82.94
2022-08-24T03:30:51.940Z,82.94
2022-08-24T03:31:51.828Z,82.98
2022-08-24T03:32:51.829Z,82.88
2022-08-24T03:33:51.828Z,82.88
2022-08-24T03:34:51.806Z,82.88
2022-08-24T03:35:51.799Z,82.88
2022-08-24T03:36:51.797Z,82.88
2022-08-24T03:37:51.792Z,82.78
2022-08-24T03:38:51.773Z,82.82
2022-08-24T03:39:51.797Z,82.82
2022-08-24T03:40:51.741Z,82.82
2022-08-24T03:41:51.727Z,82.82
2022-08-24T03:42:51.711Z,82.82
2022-08-24T03:43:51.711Z,82.82
2022-08-24T03:44:51.698Z,82.92
2022-08-24T03:45:51.727Z,82.92
2022-08-24T03:46:51.672Z,82.92
2022-08-24T03:47:51.667Z,82.92
2022-08-24T03:48:51.653Z,82.92
2022-08-24T03:49:51.634Z,83.02
2022-08-24T03:50:51.625Z,83.12
2022-08-24T03:51:51.605Z,83.26
2022-08-24T03:52:51.605Z,83.36
2022-08-24T03:53:51.607Z,83.36
2022-08-24T03:54:51.585Z,83.46
2022-08-24T03:55:51.573Z,83.66
2022-08-24T03:56:51.565Z,83.87
2022-08-24T03:57:51.556Z,83.97
2022-08-24T03:58:51.577Z,84.07
2022-08-24T03:59:51.525Z,84.07
2022-08-24T04:00:51.551Z,83.97
2022-08-24T04:01:51.507Z,83.97
2022-08-24T04:02:51.577Z,83.97
2022-08-24T04:03:51.495Z,83.87
2022-08-24T04:04:51.478Z,83.76
2022-08-24T04:05:51.538Z,83.87
2022-08-24T04:06:51.461Z,83.76
2022-08-24T04:07:51.448Z,83.91
2022-08-24T04:08:51.449Z,84.01
2022-08-24T04:09:51.419Z,84.11
2022-08-24T04:10:51.422Z,84.01
2022-08-24T04:11:51.918Z,84.11
2022-08-24T04:12:51.391Z,84.31
2022-08-24T04:13:51.390Z,84.51
2022-08-24T04:14:51.381Z,84.51
2022-08-24T04:15:51.360Z,84.51
2022-08-24T04:16:57.201Z,84.41
2022-08-24T04:17:52.339Z,84.61
2022-08-24T04:18:51.331Z,84.81
2022-08-24T04:19:51.323Z,85.02
2022-08-24T04:20:51.322Z,85.31
2022-08-24T04:21:51.293Z,85.42
2022-08-24T04:22:51.323Z,85.42
2022-08-24T04:23:51.284Z,85.31
2022-08-24T04:24:51.293Z,85.31
2022-08-24T04:25:51.255Z,85.31
2022-08-24T04:26:51.265Z,85.31
2022-08-24T04:27:51.235Z,85.22
2022-08-24T04:28:51.235Z,85.22
2022-08-24T04:29:51.233Z,85.11
2022-08-24T04:30:51.214Z,85.22
2022-08-24T04:31:51.233Z,85.25
2022-08-24T04:32:51.185Z,85.36
2022-08-24T04:33:53.843Z,85.42
2022-08-24T04:34:51.166Z,85.52
2022-08-24T04:35:51.147Z,85.56
2022-08-24T04:36:51.163Z,85.56
2022-08-24T04:37:51.127Z,85.56
2022-08-24T04:38:51.127Z,85.52
2022-08-24T04:39:51.185Z,85.56
2022-08-24T04:40:51.098Z,85.52
2022-08-24T04:41:51.091Z,85.72
2022-08-24T04:42:51.079Z,85.92
2022-08-24T04:43:51.081Z,86.13
2022-08-24T04:44:51.059Z,86.43
2022-08-24T04:45:51.128Z,86.53
2022-08-24T04:46:51.037Z,86.63
2022-08-24T04:47:51.020Z,86.73
2022-08-24T04:48:51.030Z,86.93
2022-08-24T04:49:51.002Z,86.83
2022-08-24T04:50:50.991Z,86.93
2022-08-24T04:51:50.993Z,86.93
2022-08-24T04:52:50.970Z,86.73
2022-08-24T04:53:50.971Z,86.73
2022-08-24T04:54:50.952Z,86.63
2022-08-24T04:55:50.943Z,86.63
2022-08-24T04:56:50.982Z,86.53
2022-08-24T04:57:50.912Z,86.53
2022-08-24T04:58:50.936Z,86.53
2022-08-24T04:59:50.995Z,86.43
2022-08-24T05:00:50.941Z,86.43
2022-08-24T05:01:50.918Z,86.43
2022-08-24T05:02:50.865Z,86.33
2022-08-24T05:03:50.867Z,86.33
2022-08-24T05:04:50.844Z,86.22
2022-08-24T05:05:50.840Z,86.22
2022-08-24T05:06:53.365Z,86.22
2022-08-24T05:07:54.706Z,86.13
2022-08-24T05:08:51.816Z,86.02
2022-08-24T05:09:52.372Z,86.02
2022-08-24T05:10:50.799Z,86.02
2022-08-24T05:11:50.767Z,86.02
2022-08-24T05:12:50.762Z,86.02
2022-08-24T05:13:50.757Z,85.88
2022-08-24T05:14:50.770Z,85.88
2022-08-24T05:15:50.785Z,85.98
2022-08-24T05:16:53.232Z,85.88
2022-08-24T05:17:51.226Z,85.88
2022-08-24T05:18:50.699Z,85.98
2022-08-24T05:19:50.695Z,85.88
2022-08-24T05:20:50.679Z,85.88
2022-08-24T05:21:50.663Z,85.88
2022-08-24T05:22:55.411Z,85.98
2022-08-24T05:23:51.661Z,85.98
2022-08-24T05:24:50.628Z,85.98
2022-08-24T05:25:50.628Z,85.98
2022-08-24T05:26:50.611Z,85.88
2022-08-24T05:27:50.602Z,85.88
2022-08-24T05:28:50.597Z,85.88
2022-08-24T05:29:50.623Z,85.94
2022-08-24T05:30:51.141Z,86.04
2022-08-24T05:31:50.615Z,86.04
2022-08-24T05:32:50.544Z,85.94
2022-08-24T05:33:50.552Z,85.94
2022-08-24T05:34:50.523Z,85.94
2022-08-24T05:35:50.523Z,85.84
2022-08-24T05:36:50.534Z,85.74
2022-08-24T05:37:50.562Z,85.70
2022-08-24T05:38:50.504Z,85.70
2022-08-24T05:39:50.515Z,85.50
2022-08-24T05:40:50.445Z,85.30
2022-08-24T05:41:50.446Z,85.20
2022-08-24T05:42:50.438Z,85.10
2022-08-24T05:43:50.425Z,85.10
2022-08-24T05:44:50.497Z,85.05
2022-08-24T05:45:50.396Z,84.95
2022-08-24T05:46:50.425Z,84.85
2022-08-24T05:47:50.377Z,84.75
2022-08-24T05:48:52.866Z,84.75
2022-08-24T05:49:50.389Z,84.65
2022-08-24T05:50:50.338Z,84.55
2022-08-24T05:51:50.339Z,84.55
2022-08-24T05:52:50.331Z,84.51
2022-08-24T05:53:50.450Z,84.31
2022-08-24T05:54:50.363Z,84.21
2022-08-24T05:55:50.288Z,84.01
2022-08-24T05:56:50.288Z,83.81
2022-08-24T05:57:50.270Z,83.71
2022-08-24T05:58:50.282Z,83.61
2022-08-24T05:59:50.249Z,83.47
2022-08-24T06:00:50.231Z,83.37
2022-08-24T06:01:50.378Z,83.37
2022-08-24T06:02:50.330Z,83.26
2022-08-24T06:03:50.206Z,83.06
2022-08-24T06:04:50.204Z,82.97
2022-08-24T06:05:50.202Z,82.92
2022-08-24T06:06:50.164Z,82.72
2022-08-24T06:07:50.164Z,82.42
2022-08-24T06:08:50.146Z,82.32
2022-08-24T06:09:50.164Z,81.88
2022-08-24T06:10:50.240Z,81.58
2022-08-24T06:11:50.116Z,81.24
2022-08-24T06:12:50.103Z,80.33
2022-08-24T06:13:56.323Z,79.80
2022-08-24T06:14:51.106Z,79.75
2022-08-24T06:16:11.004Z,79.55
2022-08-24T06:16:51.142Z,79.22
2022-08-24T06:17:50.076Z,78.78
2022-08-24T06:18:50.042Z,78.34
2022-08-24T06:19:50.045Z,77.74
2022-08-24T06:20:50.019Z,76.90
2022-08-24T06:21:51.007Z,76.46
2022-08-24T06:22:50.015Z,75.63
2022-08-24T06:23:50.020Z,75.02
2022-08-24T06:24:50.020Z,74.39
2022-08-24T06:25:49.962Z,73.86
2022-08-24T06:26:50.489Z,73.62
2022-08-24T06:27:49.971Z,72.89
2022-08-24T06:28:49.965Z,71.89
2022-08-24T06:29:49.975Z,71.45
2022-08-24T06:30:49.980Z,70.42
2022-08-24T06:31:54.653Z,69.79
2022-08-24T06:32:50.882Z,69.16
2022-08-24T06:33:49.882Z,68.23
2022-08-24T06:34:49.882Z,68.03
2022-08-24T06:35:49.860Z,67.40
2022-08-24T06:36:49.836Z,65.68
2022-08-24T06:37:49.854Z,65.58
2022-08-24T06:38:49.924Z,64.85
2022-08-24T06:39:56.953Z,64.45
2022-08-24T06:40:50.806Z,64.52
2022-08-24T06:41:49.837Z,63.63
2022-08-24T06:42:49.786Z,63.43
2022-08-24T06:43:49.777Z,63.30
2022-08-24T06:44:49.807Z,63.20
2022-08-24T06:45:49.757Z,63.10
2022-08-24T06:46:49.798Z,62.47
2022-08-24T06:47:49.739Z,62.18
2022-08-24T06:48:49.709Z,61.88
2022-08-24T06:49:49.753Z,61.55
2022-08-24T06:50:49.693Z,61.55
2022-08-24T06:51:50.884Z,61.12
2022-08-24T06:52:49.690Z,60.83
2022-08-24T06:53:49.674Z,60.50
2022-08-24T06:54:49.652Z,60.20
2022-08-24T06:55:49.651Z,59.88
2022-08-24T06:56:49.643Z,59.45
2022-08-24T06:57:52.570Z,58.13
2022-08-24T06:58:49.633Z,57.51
2022-08-24T06:59:49.607Z,57.41
2022-08-24T07:00:49.597Z,57.68
2022-08-24T07:01:49.684Z,56.59
2022-08-24T07:02:49.613Z,55.97
2022-08-24T07:03:49.558Z,55.35
2022-08-24T07:04:49.555Z,55.45
2022-08-24T07:05:49.536Z,55.43
2022-08-24T07:06:49.539Z,54.93
2022-08-24T07:07:49.528Z,54.90
2022-08-24T07:08:49.524Z,54.61
2022-08-24T07:09:49.499Z,54.71
2022-08-24T07:10:49.489Z,54.21
2022-08-24T07:11:49.478Z,54.73
2022-08-24T07:12:49.479Z,54.24
2022-08-24T07:13:49.459Z,54.66
2022-08-24T07:14:49.469Z,55.65
2022-08-24T07:15:49.524Z,56.27
2022-08-24T07:16:49.482Z,56.30
2022-08-24T07:17:49.412Z,56.49
2022-08-24T07:18:50.585Z,56.40
2022-08-24T07:19:49.403Z,56.72
2022-08-24T07:20:49.384Z,57.02
2022-08-24T07:21:49.364Z,56.62
2022-08-24T07:22:49.370Z,56.62
2022-08-24T07:23:49.346Z,56.74
2022-08-24T07:24:49.356Z,57.04
2022-08-24T07:25:54.154Z,57.54
2022-08-24T07:26:50.320Z,57.93
2022-08-24T07:27:49.329Z,57.74
2022-08-24T07:28:49.308Z,57.41
2022-08-24T07:30:04.598Z,56.13
2022-08-24T07:30:50.344Z,56.30
2022-08-24T07:31:49.275Z,55.47
2022-08-24T07:32:49.270Z,55.65
2022-08-24T07:33:49.254Z,54.17
2022-08-24T07:34:49.298Z,53.75
2022-08-24T07:35:49.277Z,53.52
2022-08-24T07:36:49.213Z,53.39
2022-08-24T07:37:49.204Z,52.41
2022-08-24T07:38:49.193Z,52.78
2022-08-24T07:39:49.318Z,52.98
2022-08-24T07:41:14.300Z,52.46
2022-08-24T07:42:12.355Z,51.54
2022-08-24T07:42:50.155Z,50.24
2022-08-24T07:43:49.145Z,50.04
2022-08-24T07:44:49.168Z,50.21
2022-08-24T07:45:49.117Z,49.52
2022-08-24T07:46:49.236Z,48.91
2022-08-24T07:47:55.197Z,48.61
2022-08-24T07:48:56.168Z,48.61
2022-08-24T07:49:50.100Z,48.71
2022-08-24T07:50:49.107Z,48.52
2022-08-24T07:51:49.060Z,48.52
2022-08-24T07:52:49.301Z,48.69
2022-08-24T07:53:53.899Z,48.49
2022-08-24T07:54:50.041Z,49.16
2022-08-24T07:55:49.091Z,48.67
2022-08-24T07:56:49.011Z,47.98
2022-08-24T07:57:49.002Z,48.05
2022-08-24T07:58:49.002Z,48.45
2022-08-24T07:59:50.002Z,47.36
2022-08-24T08:00:49.013Z,47.83
2022-08-24T08:01:49.181Z,46.95
2022-08-24T08:02:49.031Z,46.85
2022-08-24T08:03:50.093Z,45.75
2022-08-24T08:04:48.945Z,46.83
2022-08-24T08:05:48.917Z,46.44
2022-08-24T08:06:48.924Z,45.95
2022-08-24T08:07:52.262Z,46.53
2022-08-24T08:08:48.897Z,46.31
2022-08-24T08:09:48.920Z,46.12
2022-08-24T08:10:48.880Z,45.43
2022-08-24T08:11:48.862Z,45.43
2022-08-24T08:12:48.851Z,44.94
2022-08-24T08:13:48.843Z,45.14
2022-08-24T08:14:48.842Z,45.83
2022-08-24T08:15:48.849Z,44.53
2022-08-24T08:16:48.817Z,44.92
2022-08-24T08:17:52.705Z,44.23
2022-08-24T08:18:56.477Z,44.53
2022-08-24T08:19:49.795Z,44.33
2022-08-24T08:20:48.774Z,44.53
2022-08-24T08:21:48.765Z,45.04
2022-08-24T08:22:48.756Z,44.26
2022-08-24T08:23:48.756Z,44.62
2022-08-24T08:24:48.746Z,45.21
2022-08-24T08:25:48.738Z,44.73
2022-08-24T08:26:48.718Z,44.92
2022-08-24T08:27:48.719Z,44.82
2022-08-24T08:28:48.735Z,44.80
2022-08-24T08:29:48.720Z,44.51
2022-08-24T08:30:48.689Z,44.38
2022-08-24T08:31:48.671Z,44.48
2022-08-24T08:32:48.660Z,45.25
2022-08-24T08:33:48.658Z,43.29
2022-08-24T08:34:48.660Z,43.29
2022-08-24T08:35:48.640Z,43.41
2022-08-24T08:36:48.633Z,43.80
2022-08-24T08:37:48.626Z,44.56
2022-08-24T08:38:48.602Z,44.07
2022-08-24T08:39:48.666Z,43.88
2022-08-24T08:40:48.595Z,43.29
2022-08-24T08:41:48.585Z,43.46
2022-08-24T08:42:48.566Z,43.56
2022-08-24T08:43:48.556Z,42.68
2022-08-24T08:44:48.597Z,42.97
2022-08-24T08:45:48.567Z,42.50
2022-08-24T08:46:48.527Z,42.99
2022-08-24T08:47:48.548Z,43.38
2022-08-24T08:48:49.238Z,44.07
2022-08-24T08:49:48.546Z,43.48
2022-08-24T08:50:48.500Z,43.58
2022-08-24T08:51:48.481Z,43.90
2022-08-24T08:52:48.473Z,45.53
2022-08-24T08:53:48.505Z,45.87
2022-08-24T08:54:48.451Z,47.27
2022-08-24T08:55:48.487Z,47.51
2022-08-24T08:56:48.442Z,47.83
2022-08-24T08:57:48.434Z,47.75
2022-08-24T08:58:51.106Z,49.08
2022-08-24T08:59:49.421Z,49.48
2022-08-24T09:00:48.406Z,48.88
2022-08-24T09:01:48.411Z,49.28
2022-08-24T09:02:48.393Z,48.79
2022-08-24T09:03:48.399Z,47.72
2022-08-24T09:04:48.430Z,49.50
2022-08-24T09:05:48.417Z,49.52
2022-08-24T09:06:48.349Z,49.20
2022-08-24T09:07:48.352Z,50.29
2022-08-24T09:08:52.090Z,49.38
2022-08-24T09:09:48.319Z,48.79
2022-08-24T09:10:48.329Z,48.57
2022-08-24T09:11:48.321Z,47.38
2022-08-24T09:12:48.290Z,46.89
2022-08-24T09:13:48.291Z,49.06
2022-08-24T09:14:48.272Z,47.28
2022-08-24T09:15:48.280Z,47.88
2022-08-24T09:16:48.304Z,48.49
2022-08-24T09:17:48.253Z,47.80
2022-08-24T09:18:48.250Z,47.70
2022-08-24T09:19:48.234Z,48.19
2022-08-24T09:20:48.233Z,48.29
2022-08-24T09:21:48.215Z,48.76
2022-08-24T09:22:48.215Z,47.58
2022-08-24T09:23:48.210Z,47.26
2022-08-24T09:24:48.185Z,45.37
2022-08-24T09:25:48.187Z,46.65
2022-08-24T09:26:48.177Z,46.25
2022-08-24T09:27:51.413Z,45.96
2022-08-24T09:28:48.157Z,44.46
2022-08-24T09:29:48.147Z,44.98
2022-08-24T09:30:48.221Z,45.07
2022-08-24T09:31:48.148Z,44.68
2022-08-24T09:32:49.728Z,45.17
2022-08-24T09:33:48.119Z,45.76
2022-08-24T09:34:48.110Z,44.78
2022-08-24T09:35:48.122Z,44.58
2022-08-24T09:36:48.092Z,44.56
2022-08-24T09:37:48.091Z,46.23
2022-08-24T09:38:48.075Z,44.26
2022-08-24T09:39:48.092Z,43.97
2022-08-24T09:40:48.065Z,43.97
2022-08-24T09:41:48.062Z,45.54
2022-08-24T09:42:48.045Z,44.88
2022-08-24T09:43:48.054Z,46.45
2022-08-24T09:44:48.024Z,44.88
2022-08-24T09:45:48.039Z,45.67
2022-08-24T09:46:48.016Z,45.56
2022-08-24T09:47:48.005Z,44.80
2022-08-24T09:48:47.987Z,46.08
2022-08-24T09:49:47.986Z,43.40
2022-08-24T09:50:47.973Z,42.49
2022-08-24T09:51:47.980Z,43.68
2022-08-24T09:52:47.972Z,44.07
2022-08-24T09:53:47.958Z,43.57
2022-08-24T09:54:47.938Z,44.07
2022-08-24T09:55:47.931Z,44.15
2022-08-24T09:56:47.957Z,42.77
2022-08-24T09:58:00.421Z,42.25
2022-08-24T09:58:48.909Z,43.73
2022-08-24T09:59:47.977Z,42.04
2022-08-24T10:00:47.972Z,41.27
2022-08-24T10:01:47.903Z,44.12
2022-08-24T10:02:47.931Z,43.14
2022-08-24T10:03:47.883Z,42.14
2022-08-24T10:04:47.926Z,42.63
2022-08-24T10:05:47.972Z,41.94
2022-08-24T10:06:47.852Z,41.67
2022-08-24T10:07:47.833Z,42.06
2022-08-24T10:08:47.826Z,43.26
2022-08-24T10:09:47.824Z,42.86
2022-08-24T10:10:47.805Z,42.96
2022-08-24T10:11:48.016Z,42.75
2022-08-24T10:12:48.022Z,41.86
2022-08-24T10:13:47.787Z,42.25
2022-08-24T10:14:47.776Z,42.65
2022-08-24T10:15:47.775Z,42.35
2022-08-24T10:16:47.814Z,41.78
2022-08-24T10:17:47.771Z,42.08
2022-08-24T10:18:47.737Z,42.86
2022-08-24T10:19:47.745Z,42.67
2022-08-24T10:20:47.738Z,42.85
2022-08-24T10:21:47.730Z,41.86
2022-08-24T10:22:47.710Z,41.64
2022-08-24T10:23:47.719Z,43.41
2022-08-24T10:24:47.706Z,43.41
2022-08-24T10:25:47.710Z,42.25
2022-08-24T10:26:47.682Z,42.38
2022-08-24T10:27:47.673Z,45.15
2022-08-24T10:28:47.672Z,44.07
2022-08-24T10:29:47.691Z,44.19
2022-08-24T10:30:47.643Z,45.56
2022-08-24T10:31:47.695Z,44.36
2022-08-24T10:32:47.644Z,42.99
2022-08-24T10:33:47.634Z,45.05
2022-08-24T10:34:47.624Z,44.26
2022-08-24T10:35:47.614Z,44.48
2022-08-24T10:36:47.607Z,44.38
2022-08-24T10:37:47.599Z,45.07
2022-08-24T10:38:47.585Z,44.88
2022-08-24T10:39:47.598Z,47.02
2022-08-24T10:40:47.566Z,43.68
2022-08-24T10:41:47.579Z,43.68
2022-08-24T10:42:47.549Z,43.65
2022-08-24T10:43:47.545Z,43.24
2022-08-24T10:44:47.547Z,44.52
2022-08-24T10:45:48.126Z,42.94
2022-08-24T10:46:47.531Z,44.24
2022-08-24T10:47:47.521Z,44.52
2022-08-24T10:48:47.490Z,44.22
2022-08-24T10:49:47.491Z,43.80
2022-08-24T10:50:47.473Z,42.53
2022-08-24T10:51:47.504Z,42.33
2022-08-24T10:52:47.453Z,43.00
2022-08-24T10:53:47.453Z,42.11
2022-08-24T10:54:47.443Z,43.39
2022-08-24T10:55:47.445Z,41.94
2022-08-24T10:56:47.433Z,43.02
2022-08-24T10:57:47.425Z,41.94
2022-08-24T10:58:47.417Z,41.84
2022-08-24T10:59:47.415Z,42.43
2022-08-24T11:00:47.471Z,41.84
2022-08-24T11:01:47.447Z,41.96
2022-08-24T11:02:47.391Z,42.04
2022-08-24T11:03:47.365Z,42.71
2022-08-24T11:04:47.357Z,42.19
2022-08-24T11:05:47.361Z,41.98
2022-08-24T11:06:47.349Z,39.92
2022-08-24T11:07:47.339Z,40.31
2022-08-24T11:08:47.329Z,40.31
2022-08-24T11:09:47.327Z,41.71
2022-08-24T11:10:47.320Z,40.82
2022-08-24T11:11:47.338Z,41.31
2022-08-24T11:12:47.299Z,41.29
2022-08-24T11:13:47.296Z,41.00
2022-08-24T11:14:47.282Z,40.51
2022-08-24T11:15:47.281Z,41.51
2022-08-24T11:16:47.483Z,41.84
2022-08-24T11:17:47.412Z,42.63
2022-08-24T11:18:47.242Z,42.06
2022-08-24T11:19:47.245Z,41.98
2022-08-24T11:20:47.265Z,41.88
2022-08-24T11:21:47.244Z,43.43
2022-08-24T11:22:47.215Z,42.53
2022-08-24T11:23:47.218Z,42.71
2022-08-24T11:24:47.215Z,42.29
2022-08-24T11:25:47.205Z,40.21
2022-08-24T11:26:47.215Z,40.01
2022-08-24T11:27:48.197Z,39.49
2022-08-24T11:28:47.167Z,39.37
2022-08-24T11:29:47.175Z,39.00
2022-08-24T11:30:47.146Z,39.59
2022-08-24T11:31:47.297Z,40.31
2022-08-24T11:32:47.138Z,39.62
2022-08-24T11:33:49.674Z,40.82
2022-08-24T11:34:47.120Z,41.49
2022-08-24T11:35:47.109Z,41.15
2022-08-24T11:36:47.122Z,39.09
2022-08-24T11:37:47.100Z,38.80
2022-08-24T11:38:47.088Z,38.72
2022-08-24T11:39:47.147Z,39.62
2022-08-24T11:40:47.071Z,40.09
2022-08-24T11:41:47.116Z,40.66
2022-08-24T11:42:47.068Z,38.70
2022-08-24T11:43:47.051Z,39.78
2022-08-24T11:44:47.040Z,39.00
2022-08-24T11:45:47.034Z,38.41
2022-08-24T11:46:47.124Z,37.43
2022-08-24T11:47:47.040Z,40.45
2022-08-24T11:48:47.005Z,37.08
2022-08-24T11:49:47.003Z,37.27
2022-08-24T11:50:47.006Z,36.22
2022-08-24T11:51:47.003Z,36.32
2022-08-24T11:52:46.994Z,38.29
2022-08-24T11:53:46.996Z,36.80
2022-08-24T11:54:46.991Z,37.79
2022-08-24T11:55:51.657Z,38.57
2022-08-24T11:56:47.957Z,37.67
2022-08-24T11:57:47.803Z,35.91
2022-08-24T11:58:46.957Z,36.30
2022-08-24T11:59:46.967Z,36.12
2022-08-24T12:00:46.921Z,39.04
2022-08-24T12:01:46.996Z,36.00
2022-08-24T12:02:46.993Z,35.13
2022-08-24T12:03:51.889Z,35.34
2022-08-24T12:04:47.945Z,37.00
2022-08-24T12:05:46.892Z,35.71
2022-08-24T12:06:46.900Z,36.28
2022-08-24T12:47:41.128Z,32.01
2022-08-24T12:48:41.099Z,32.99
2022-08-24T12:49:41.112Z,33.09
2022-08-24T12:50:41.099Z,31.23
2022-08-24T12:51:41.072Z,32.48
2022-08-24T12:52:41.108Z,33.95
2022-08-24T12:53:41.064Z,33.34
2022-08-24T12:54:41.081Z,31.80
2022-08-24T12:55:41.173Z,31.51
2022-08-24T12:56:41.037Z,32.01
2022-08-24T12:57:51.881Z,33.97
2022-08-24T12:58:53.982Z,33.38
2022-08-24T12:59:42.012Z,33.46
2022-08-24T13:00:41.037Z,33.09
2022-08-24T13:01:41.181Z,33.85
2022-08-24T13:02:47.600Z,32.78
2022-08-24T13:03:41.975Z,30.71
2022-08-24T13:04:40.977Z,32.87
2022-08-24T13:05:40.966Z,31.98
2022-08-24T13:06:40.946Z,32.18
2022-08-24T13:07:40.984Z,31.98
2022-08-24T13:08:40.937Z,32.08
2022-08-24T13:09:40.927Z,31.49
2022-08-24T13:10:40.926Z,30.42
2022-08-24T13:11:40.929Z,30.52
2022-08-24T13:12:40.939Z,31.02
2022-08-24T13:13:41.452Z,31.52
2022-08-24T13:14:40.890Z,31.92
2022-08-24T13:15:40.914Z,33.18
2022-08-24T13:16:40.880Z,32.60
2022-08-24T13:17:40.910Z,31.23
2022-08-24T13:18:40.860Z,31.80
2022-08-24T13:19:40.873Z,31.60
2022-08-24T13:20:40.851Z,34.03
2022-08-24T13:21:40.840Z,31.77
2022-08-24T13:22:40.841Z,31.56
2022-08-24T13:23:40.830Z,30.96
2022-08-24T13:24:40.842Z,29.99
2022-08-24T13:25:40.812Z,30.67
2022-08-24T13:26:41.153Z,32.91
2022-08-24T13:27:40.793Z,31.93
2022-08-24T13:28:40.813Z,32.40
2022-08-24T13:29:40.832Z,32.29
2022-08-24T13:30:40.764Z,30.33
2022-08-24T13:31:40.839Z,30.41
2022-08-24T15:32:04.668Z,32.46